sensor_id;sensor_type;location;lat;lon;timestamp;temperature;humidity
52209;DHT22;38507;53.132;6.394;2024-02-28T00:00:46;3.30;99.90
52209;DHT22;38507;53.132;6.394;2024-02-28T00:03:12;2.20;99.90
52209;DHT22;38507;53.132;6.394;2024-02-28T00:05:38;2.30;99.90
52209;DHT22;38507;53.132;6.394;2024-02-28T00:08:04;2.20;99.90
52209;DHT22;38507;53.132;6.394;2024-02-28T00:10:33;2.30;99.90
52209;DHT22;38507;53.132;6.394;2024-02-28T00:12:59;3.00;99.90
52209;DHT22;38507;53.132;6.394;2024-02-28T00:15:25;2.90;99.90
52209;DHT22;38507;53.132;6.394;2024-02-28T00:17:55;3.60;99.90
52209;DHT22;38507;53.132;6.394;2024-02-28T00:20:21;2.20;99.90
52209;DHT22;38507;53.132;6.394;2024-02-28T00:22:46;2.10;99.90
52209;DHT22;38507;53.132;6.394;2024-02-28T00:25:12;2.70;99.90
52209;DHT22;38507;53.132;6.394;2024-02-28T00:27:39;2.80;99.90
52209;DHT22;38507;53.132;6.394;2024-02-28T00:30:08;2.80;99.90
52209;DHT22;38507;53.132;6.394;2024-02-28T00:32:36;2.30;99.90
52209;DHT22;38507;53.132;6.394;2024-02-28T00:35:02;3.30;99.90
52209;DHT22;38507;53.132;6.394;2024-02-28T00:37:28;2.30;99.90
52209;DHT22;38507;53.132;6.394;2024-02-28T00:39:53;2.00;99.90
52209;DHT22;38507;53.132;6.394;2024-02-28T00:42:19;3.00;99.90
52209;DHT22;38507;53.132;6.394;2024-02-28T00:44:45;3.30;99.90
52209;DHT22;38507;53.132;6.394;2024-02-28T00:47:10;2.70;99.90
52209;DHT22;38507;53.132;6.394;2024-02-28T00:49:37;2.40;99.90
52209;DHT22;38507;53.132;6.394;2024-02-28T00:52:03;3.20;99.90
52209;DHT22;38507;53.132;6.394;2024-02-28T00:54:28;2.30;99.90
52209;DHT22;38507;53.132;6.394;2024-02-28T00:56:54;2.80;99.90
52209;DHT22;38507;53.132;6.394;2024-02-28T00:59:20;2.90;99.90
52209;DHT22;38507;53.132;6.394;2024-02-28T01:01:45;3.20;99.90
52209;DHT22;38507;53.132;6.394;2024-02-28T01:04:13;3.00;99.90
52209;DHT22;38507;53.132;6.394;2024-02-28T01:06:39;2.60;99.90
52209;DHT22;38507;53.132;6.394;2024-02-28T01:09:04;2.30;99.90
52209;DHT22;38507;53.132;6.394;2024-02-28T01:11:30;2.90;99.90
52209;DHT22;38507;53.132;6.394;2024-02-28T01:13:58;2.40;99.90
52209;DHT22;38507;53.132;6.394;2024-02-28T01:16:24;3.00;99.90
52209;DHT22;38507;53.132;6.394;2024-02-28T01:18:51;2.20;99.90
52209;DHT22;38507;53.132;6.394;2024-02-28T01:21:19;3.20;99.90
52209;DHT22;38507;53.132;6.394;2024-02-28T01:23:45;3.40;99.90
52209;DHT22;38507;53.132;6.394;2024-02-28T01:26:10;2.90;99.90
52209;DHT22;38507;53.132;6.394;2024-02-28T01:28:36;3.10;99.90
52209;DHT22;38507;53.132;6.394;2024-02-28T01:31:02;2.60;99.90
52209;DHT22;38507;53.132;6.394;2024-02-28T01:33:27;2.30;99.90
52209;DHT22;38507;53.132;6.394;2024-02-28T01:35:53;3.50;99.90
52209;DHT22;38507;53.132;6.394;2024-02-28T01:38:19;2.70;99.90
52209;DHT22;38507;53.132;6.394;2024-02-28T01:40:47;3.10;99.90
52209;DHT22;38507;53.132;6.394;2024-02-28T01:43:13;2.20;99.90
52209;DHT22;38507;53.132;6.394;2024-02-28T01:45:39;3.00;99.90
52209;DHT22;38507;53.132;6.394;2024-02-28T01:48:07;2.00;99.90
52209;DHT22;38507;53.132;6.394;2024-02-28T01:50:35;3.20;99.90
52209;DHT22;38507;53.132;6.394;2024-02-28T01:53:02;3.00;99.90
52209;DHT22;38507;53.132;6.394;2024-02-28T01:55:29;2.20;99.90
52209;DHT22;38507;53.132;6.394;2024-02-28T01:57:55;2.20;99.90
52209;DHT22;38507;53.132;6.394;2024-02-28T02:00:21;2.40;99.90
52209;DHT22;38507;53.132;6.394;2024-02-28T02:02:48;3.20;99.90
52209;DHT22;38507;53.132;6.394;2024-02-28T02:05:14;2.80;99.90
52209;DHT22;38507;53.132;6.394;2024-02-28T02:07:42;2.20;99.90
52209;DHT22;38507;53.132;6.394;2024-02-28T02:10:08;3.20;99.90
52209;DHT22;38507;53.132;6.394;2024-02-28T02:12:37;2.20;99.90
52209;DHT22;38507;53.132;6.394;2024-02-28T02:15:03;2.70;99.90
52209;DHT22;38507;53.132;6.394;2024-02-28T02:17:29;2.20;99.90
52209;DHT22;38507;53.132;6.394;2024-02-28T02:19:55;3.10;99.90
52209;DHT22;38507;53.132;6.394;2024-02-28T02:22:21;3.10;99.90
52209;DHT22;38507;53.132;6.394;2024-02-28T02:24:48;2.20;99.90
52209;DHT22;38507;53.132;6.394;2024-02-28T02:27:14;3.00;99.90
52209;DHT22;38507;53.132;6.394;2024-02-28T02:29:40;2.80;99.90
52209;DHT22;38507;53.132;6.394;2024-02-28T02:32:05;3.00;99.90
52209;DHT22;38507;53.132;6.394;2024-02-28T02:34:31;2.10;99.90
52209;DHT22;38507;53.132;6.394;2024-02-28T02:36:57;3.20;99.90
52209;DHT22;38507;53.132;6.394;2024-02-28T02:39:23;2.90;99.90
52209;DHT22;38507;53.132;6.394;2024-02-28T02:41:49;3.20;99.90
52209;DHT22;38507;53.132;6.394;2024-02-28T02:44:14;3.40;99.90
52209;DHT22;38507;53.132;6.394;2024-02-28T02:46:40;3.00;99.90
52209;DHT22;38507;53.132;6.394;2024-02-28T02:49:06;3.00;99.90
52209;DHT22;38507;53.132;6.394;2024-02-28T02:51:31;2.90;99.90
52209;DHT22;38507;53.132;6.394;2024-02-28T02:53:57;3.30;99.90
52209;DHT22;38507;53.132;6.394;2024-02-28T02:56:23;3.60;99.90
52209;DHT22;38507;53.132;6.394;2024-02-28T02:58:48;2.80;99.90
52209;DHT22;38507;53.132;6.394;2024-02-28T03:01:14;3.30;99.90
52209;DHT22;38507;53.132;6.394;2024-02-28T03:03:40;3.10;99.90
52209;DHT22;38507;53.132;6.394;2024-02-28T03:06:06;2.50;99.90
52209;DHT22;38507;53.132;6.394;2024-02-28T03:08:32;2.90;99.90
52209;DHT22;38507;53.132;6.394;2024-02-28T03:10:58;2.20;99.90
52209;DHT22;38507;53.132;6.394;2024-02-28T03:13:24;3.00;99.90
52209;DHT22;38507;53.132;6.394;2024-02-28T03:15:49;3.40;99.90
52209;DHT22;38507;53.132;6.394;2024-02-28T03:18:15;3.10;99.90
52209;DHT22;38507;53.132;6.394;2024-02-28T03:20:41;2.20;99.90
52209;DHT22;38507;53.132;6.394;2024-02-28T03:23:06;2.30;99.90
52209;DHT22;38507;53.132;6.394;2024-02-28T03:25:32;2.20;99.90
52209;DHT22;38507;53.132;6.394;2024-02-28T03:27:59;2.60;99.90
52209;DHT22;38507;53.132;6.394;2024-02-28T03:30:26;3.10;99.90
52209;DHT22;38507;53.132;6.394;2024-02-28T03:32:52;3.00;99.90
52209;DHT22;38507;53.132;6.394;2024-02-28T03:35:18;2.40;99.90
52209;DHT22;38507;53.132;6.394;2024-02-28T03:37:47;3.40;99.90
52209;DHT22;38507;53.132;6.394;2024-02-28T03:40:12;3.40;99.90
52209;DHT22;38507;53.132;6.394;2024-02-28T03:42:41;3.60;99.90
52209;DHT22;38507;53.132;6.394;2024-02-28T03:45:06;3.10;99.90
52209;DHT22;38507;53.132;6.394;2024-02-28T03:47:32;2.50;99.90
52209;DHT22;38507;53.132;6.394;2024-02-28T03:49:58;2.90;99.90
52209;DHT22;38507;53.132;6.394;2024-02-28T03:52:24;2.40;99.90
52209;DHT22;38507;53.132;6.394;2024-02-28T03:54:50;3.50;99.90
52209;DHT22;38507;53.132;6.394;2024-02-28T03:57:16;3.20;99.90
52209;DHT22;38507;53.132;6.394;2024-02-28T03:59:41;3.70;99.90
52209;DHT22;38507;53.132;6.394;2024-02-28T04:02:07;3.10;99.90
52209;DHT22;38507;53.132;6.394;2024-02-28T04:04:33;3.10;99.90
52209;DHT22;38507;53.132;6.394;2024-02-28T04:06:59;2.90;99.90
52209;DHT22;38507;53.132;6.394;2024-02-28T04:09:25;3.30;99.90
52209;DHT22;38507;53.132;6.394;2024-02-28T04:11:50;2.90;99.90
52209;DHT22;38507;53.132;6.394;2024-02-28T04:14:16;3.80;99.90
52209;DHT22;38507;53.132;6.394;2024-02-28T04:16:43;3.30;99.90
52209;DHT22;38507;53.132;6.394;2024-02-28T04:19:12;3.50;99.90
52209;DHT22;38507;53.132;6.394;2024-02-28T04:21:38;3.60;99.90
52209;DHT22;38507;53.132;6.394;2024-02-28T04:24:06;2.50;99.90
52209;DHT22;38507;53.132;6.394;2024-02-28T04:26:31;2.60;99.90
52209;DHT22;38507;53.132;6.394;2024-02-28T04:28:57;2.80;99.90
52209;DHT22;38507;53.132;6.394;2024-02-28T04:31:23;3.80;99.90
52209;DHT22;38507;53.132;6.394;2024-02-28T04:33:48;2.70;99.90
52209;DHT22;38507;53.132;6.394;2024-02-28T04:36:14;2.60;99.90
52209;DHT22;38507;53.132;6.394;2024-02-28T04:38:41;3.70;99.90
52209;DHT22;38507;53.132;6.394;2024-02-28T04:41:07;3.60;99.90
52209;DHT22;38507;53.132;6.394;2024-02-28T04:43:32;3.80;99.90
52209;DHT22;38507;53.132;6.394;2024-02-28T04:45:58;3.00;99.90
52209;DHT22;38507;53.132;6.394;2024-02-28T04:48:24;3.90;99.90
52209;DHT22;38507;53.132;6.394;2024-02-28T04:50:50;3.80;99.90
52209;DHT22;38507;53.132;6.394;2024-02-28T04:53:16;2.80;99.90
52209;DHT22;38507;53.132;6.394;2024-02-28T04:55:42;3.80;99.90
52209;DHT22;38507;53.132;6.394;2024-02-28T04:58:07;3.60;99.90
52209;DHT22;38507;53.132;6.394;2024-02-28T05:00:33;3.50;99.90
52209;DHT22;38507;53.132;6.394;2024-02-28T05:02:59;3.60;99.90
52209;DHT22;38507;53.132;6.394;2024-02-28T05:05:24;3.50;99.90
52209;DHT22;38507;53.132;6.394;2024-02-28T05:07:50;3.90;99.90
52209;DHT22;38507;53.132;6.394;2024-02-28T05:10:16;3.20;99.90
52209;DHT22;38507;53.132;6.394;2024-02-28T05:12:42;3.60;99.90
52209;DHT22;38507;53.132;6.394;2024-02-28T05:15:08;3.40;99.90
52209;DHT22;38507;53.132;6.394;2024-02-28T05:17:34;3.00;99.90
52209;DHT22;38507;53.132;6.394;2024-02-28T05:19:59;3.80;99.90
52209;DHT22;38507;53.132;6.394;2024-02-28T05:22:25;4.10;99.90
52209;DHT22;38507;53.132;6.394;2024-02-28T05:24:51;4.00;99.90
52209;DHT22;38507;53.132;6.394;2024-02-28T05:27:17;3.00;99.90
52209;DHT22;38507;53.132;6.394;2024-02-28T05:29:43;4.00;99.90
52209;DHT22;38507;53.132;6.394;2024-02-28T05:32:09;2.90;99.90
52209;DHT22;38507;53.132;6.394;2024-02-28T05:34:35;3.80;99.90
52209;DHT22;38507;53.132;6.394;2024-02-28T05:37:00;3.80;99.90
52209;DHT22;38507;53.132;6.394;2024-02-28T05:39:27;3.70;99.90
52209;DHT22;38507;53.132;6.394;2024-02-28T05:41:56;4.10;99.90
52209;DHT22;38507;53.132;6.394;2024-02-28T05:44:23;4.00;99.90
52209;DHT22;38507;53.132;6.394;2024-02-28T05:46:50;3.80;99.90
52209;DHT22;38507;53.132;6.394;2024-02-28T05:49:16;4.00;99.90
52209;DHT22;38507;53.132;6.394;2024-02-28T05:51:41;3.10;99.90
52209;DHT22;38507;53.132;6.394;2024-02-28T05:54:07;3.70;99.90
52209;DHT22;38507;53.132;6.394;2024-02-28T05:56:33;4.00;99.90
52209;DHT22;38507;53.132;6.394;2024-02-28T05:58:58;3.10;99.90
52209;DHT22;38507;53.132;6.394;2024-02-28T06:01:24;3.60;99.90
52209;DHT22;38507;53.132;6.394;2024-02-28T06:03:50;3.90;99.90
52209;DHT22;38507;53.132;6.394;2024-02-28T06:06:16;4.00;99.90
52209;DHT22;38507;53.132;6.394;2024-02-28T06:08:43;3.70;99.90
52209;DHT22;38507;53.132;6.394;2024-02-28T06:11:09;3.80;99.90
52209;DHT22;38507;53.132;6.394;2024-02-28T06:13:35;3.80;99.90
52209;DHT22;38507;53.132;6.394;2024-02-28T06:16:01;3.90;99.90
52209;DHT22;38507;53.132;6.394;2024-02-28T06:18:27;3.20;99.90
52209;DHT22;38507;53.132;6.394;2024-02-28T06:20:54;3.80;99.90
52209;DHT22;38507;53.132;6.394;2024-02-28T06:23:20;4.20;99.90
52209;DHT22;38507;53.132;6.394;2024-02-28T06:25:46;4.00;99.90
52209;DHT22;38507;53.132;6.394;2024-02-28T06:28:12;3.80;99.90
52209;DHT22;38507;53.132;6.394;2024-02-28T06:30:38;4.20;99.90
52209;DHT22;38507;53.132;6.394;2024-02-28T06:33:04;4.00;99.90
52209;DHT22;38507;53.132;6.394;2024-02-28T06:35:30;3.30;99.90
52209;DHT22;38507;53.132;6.394;2024-02-28T06:37:55;3.20;99.90
52209;DHT22;38507;53.132;6.394;2024-02-28T06:40:21;3.80;99.90
52209;DHT22;38507;53.132;6.394;2024-02-28T06:42:47;3.20;99.90
52209;DHT22;38507;53.132;6.394;2024-02-28T06:45:13;4.40;99.90
52209;DHT22;38507;53.132;6.394;2024-02-28T06:47:38;4.20;99.90
52209;DHT22;38507;53.132;6.394;2024-02-28T06:50:05;3.30;99.90
52209;DHT22;38507;53.132;6.394;2024-02-28T06:52:31;3.20;99.90
52209;DHT22;38507;53.132;6.394;2024-02-28T06:54:57;4.00;99.90
52209;DHT22;38507;53.132;6.394;2024-02-28T06:57:25;4.10;99.90
52209;DHT22;38507;53.132;6.394;2024-02-28T06:59:50;4.00;99.90
52209;DHT22;38507;53.132;6.394;2024-02-28T07:02:16;3.90;99.90
52209;DHT22;38507;53.132;6.394;2024-02-28T07:04:42;3.40;99.90
52209;DHT22;38507;53.132;6.394;2024-02-28T07:07:08;3.30;99.90
52209;DHT22;38507;53.132;6.394;2024-02-28T07:09:34;3.80;99.90
52209;DHT22;38507;53.132;6.394;2024-02-28T07:12:00;4.30;99.90
52209;DHT22;38507;53.132;6.394;2024-02-28T07:14:26;4.00;99.90
52209;DHT22;38507;53.132;6.394;2024-02-28T07:16:52;3.90;99.90
52209;DHT22;38507;53.132;6.394;2024-02-28T07:19:18;4.30;99.90
52209;DHT22;38507;53.132;6.394;2024-02-28T07:21:44;4.20;99.90
52209;DHT22;38507;53.132;6.394;2024-02-28T07:24:10;3.40;99.90
52209;DHT22;38507;53.132;6.394;2024-02-28T07:26:36;3.40;99.90
52209;DHT22;38507;53.132;6.394;2024-02-28T07:29:02;4.00;99.90
52209;DHT22;38507;53.132;6.394;2024-02-28T07:31:27;4.20;99.90
52209;DHT22;38507;53.132;6.394;2024-02-28T07:33:53;3.70;99.90
52209;DHT22;38507;53.132;6.394;2024-02-28T07:36:20;4.40;99.90
52209;DHT22;38507;53.132;6.394;2024-02-28T07:38:45;4.50;99.90
52209;DHT22;38507;53.132;6.394;2024-02-28T07:41:11;4.50;99.90
52209;DHT22;38507;53.132;6.394;2024-02-28T07:43:37;4.60;99.90
52209;DHT22;38507;53.132;6.394;2024-02-28T07:46:10;4.50;99.90
52209;DHT22;38507;53.132;6.394;2024-02-28T07:48:37;4.20;99.90
52209;DHT22;38507;53.132;6.394;2024-02-28T07:51:07;3.90;99.90
52209;DHT22;38507;53.132;6.394;2024-02-28T07:53:33;4.60;99.90
52209;DHT22;38507;53.132;6.394;2024-02-28T07:55:58;4.60;99.90
52209;DHT22;38507;53.132;6.394;2024-02-28T07:58:24;4.70;99.90
52209;DHT22;38507;53.132;6.394;2024-02-28T08:00:51;4.70;99.90
52209;DHT22;38507;53.132;6.394;2024-02-28T08:03:18;3.90;99.90
52209;DHT22;38507;53.132;6.394;2024-02-28T08:05:44;4.70;99.90
52209;DHT22;38507;53.132;6.394;2024-02-28T08:08:10;3.90;99.90
52209;DHT22;38507;53.132;6.394;2024-02-28T08:10:37;3.80;99.90
52209;DHT22;38507;53.132;6.394;2024-02-28T08:13:06;5.00;99.90
52209;DHT22;38507;53.132;6.394;2024-02-28T08:15:33;4.00;99.90
52209;DHT22;38507;53.132;6.394;2024-02-28T08:17:58;4.80;99.90
52209;DHT22;38507;53.132;6.394;2024-02-28T08:20:24;4.80;99.90
52209;DHT22;38507;53.132;6.394;2024-02-28T08:22:50;5.00;99.90
52209;DHT22;38507;53.132;6.394;2024-02-28T08:25:18;5.10;99.90
52209;DHT22;38507;53.132;6.394;2024-02-28T08:27:44;5.20;99.90
52209;DHT22;38507;53.132;6.394;2024-02-28T08:30:18;4.60;99.90
52209;DHT22;38507;53.132;6.394;2024-02-28T08:32:43;4.20;99.90
52209;DHT22;38507;53.132;6.394;2024-02-28T08:35:09;5.10;99.90
52209;DHT22;38507;53.132;6.394;2024-02-28T08:37:38;5.20;99.90
52209;DHT22;38507;53.132;6.394;2024-02-28T08:40:04;4.50;99.90
52209;DHT22;38507;53.132;6.394;2024-02-28T08:42:30;4.50;99.90
52209;DHT22;38507;53.132;6.394;2024-02-28T08:44:56;5.40;99.90
52209;DHT22;38507;53.132;6.394;2024-02-28T08:47:26;4.50;99.90
52209;DHT22;38507;53.132;6.394;2024-02-28T08:49:53;5.60;99.90
52209;DHT22;38507;53.132;6.394;2024-02-28T08:52:20;4.90;99.90
52209;DHT22;38507;53.132;6.394;2024-02-28T08:54:46;5.20;99.90
52209;DHT22;38507;53.132;6.394;2024-02-28T08:57:12;5.90;99.90
52209;DHT22;38507;53.132;6.394;2024-02-28T08:59:37;6.00;99.90
52209;DHT22;38507;53.132;6.394;2024-02-28T09:02:03;6.00;99.90
52209;DHT22;38507;53.132;6.394;2024-02-28T09:04:29;6.20;99.90
52209;DHT22;38507;53.132;6.394;2024-02-28T09:06:56;6.00;99.90
52209;DHT22;38507;53.132;6.394;2024-02-28T09:09:21;5.20;99.90
52209;DHT22;38507;53.132;6.394;2024-02-28T09:11:50;6.20;99.90
52209;DHT22;38507;53.132;6.394;2024-02-28T09:14:16;6.20;99.90
52209;DHT22;38507;53.132;6.394;2024-02-28T09:16:41;5.30;99.90
52209;DHT22;38507;53.132;6.394;2024-02-28T09:19:07;6.20;99.90
52209;DHT22;38507;53.132;6.394;2024-02-28T09:21:33;6.20;99.90
52209;DHT22;38507;53.132;6.394;2024-02-28T09:23:59;5.40;99.90
52209;DHT22;38507;53.132;6.394;2024-02-28T09:26:25;6.50;99.90
52209;DHT22;38507;53.132;6.394;2024-02-28T09:28:54;5.50;99.90
52209;DHT22;38507;53.132;6.394;2024-02-28T09:31:20;6.00;99.90
52209;DHT22;38507;53.132;6.394;2024-02-28T09:33:45;5.60;99.90
52209;DHT22;38507;53.132;6.394;2024-02-28T09:36:14;5.90;99.90
52209;DHT22;38507;53.132;6.394;2024-02-28T09:38:40;5.60;99.90
52209;DHT22;38507;53.132;6.394;2024-02-28T09:41:14;5.90;99.90
52209;DHT22;38507;53.132;6.394;2024-02-28T09:43:41;5.80;99.90
52209;DHT22;38507;53.132;6.394;2024-02-28T09:46:08;6.50;99.90
52209;DHT22;38507;53.132;6.394;2024-02-28T09:48:40;6.50;99.90
52209;DHT22;38507;53.132;6.394;2024-02-28T09:51:08;6.70;99.90
52209;DHT22;38507;53.132;6.394;2024-02-28T10:50:28;6.20;99.90
52209;DHT22;38507;53.132;6.394;2024-02-28T11:45:24;7.20;99.90
52209;DHT22;38507;53.132;6.394;2024-02-28T12:15:55;6.90;99.90
52209;DHT22;38507;53.132;6.394;2024-02-28T12:18:26;8.10;99.90
52209;DHT22;38507;53.132;6.394;2024-02-28T12:21:11;7.70;99.90
52209;DHT22;38507;53.132;6.394;2024-02-28T12:24:30;7.30;99.90
52209;DHT22;38507;53.132;6.394;2024-02-28T12:27:04;8.00;99.90
52209;DHT22;38507;53.132;6.394;2024-02-28T12:29:33;6.80;99.90
52209;DHT22;38507;53.132;6.394;2024-02-28T12:32:42;7.30;99.90
52209;DHT22;38507;53.132;6.394;2024-02-28T12:35:35;7.30;99.90
52209;DHT22;38507;53.132;6.394;2024-02-28T12:38:06;7.40;99.90
52209;DHT22;38507;53.132;6.394;2024-02-28T12:43:54;7.40;99.90
52209;DHT22;38507;53.132;6.394;2024-02-28T12:46:34;8.30;99.90
52209;DHT22;38507;53.132;6.394;2024-02-28T12:49:05;8.20;99.90
52209;DHT22;38507;53.132;6.394;2024-02-28T12:52:07;8.40;99.90
52209;DHT22;38507;53.132;6.394;2024-02-28T12:54:45;7.80;99.90
52209;DHT22;38507;53.132;6.394;2024-02-28T12:57:14;7.40;99.90
52209;DHT22;38507;53.132;6.394;2024-02-28T13:00:20;8.30;99.90
52209;DHT22;38507;53.132;6.394;2024-02-28T13:03:29;7.50;99.90
52209;DHT22;38507;53.132;6.394;2024-02-28T13:06:04;8.30;99.90
52209;DHT22;38507;53.132;6.394;2024-02-28T13:08:38;7.60;99.90
52209;DHT22;38507;53.132;6.394;2024-02-28T13:11:16;8.50;99.90
52209;DHT22;38507;53.132;6.394;2024-02-28T13:14:32;8.30;99.90
52209;DHT22;38507;53.132;6.394;2024-02-28T13:17:40;7.70;99.90
52209;DHT22;38507;53.132;6.394;2024-02-28T13:21:27;7.70;99.90
52209;DHT22;38507;53.132;6.394;2024-02-28T13:27:07;7.70;99.90
52209;DHT22;38507;53.132;6.394;2024-02-28T13:30:17;7.50;99.90
52209;DHT22;38507;53.132;6.394;2024-02-28T13:32:53;7.60;99.90
52209;DHT22;38507;53.132;6.394;2024-02-28T13:55:29;7.70;99.90
52209;DHT22;38507;53.132;6.394;2024-02-28T14:13:34;8.00;99.90
52209;DHT22;38507;53.132;6.394;2024-02-28T14:17:08;8.60;99.90
52209;DHT22;38507;53.132;6.394;2024-02-28T14:33:35;8.10;99.90
52209;DHT22;38507;53.132;6.394;2024-02-28T14:39:41;8.00;99.90
52209;DHT22;38507;53.132;6.394;2024-02-28T14:42:12;8.00;99.90
52209;DHT22;38507;53.132;6.394;2024-02-28T14:45:11;8.30;99.90
52209;DHT22;38507;53.132;6.394;2024-02-28T14:48:19;8.10;99.90
52209;DHT22;38507;53.132;6.394;2024-02-28T14:50:56;8.10;99.90
52209;DHT22;38507;53.132;6.394;2024-02-28T14:54:09;8.30;99.90
52209;DHT22;38507;53.132;6.394;2024-02-28T14:56:55;8.70;99.90
52209;DHT22;38507;53.132;6.394;2024-02-28T14:59:54;8.60;99.90
52209;DHT22;38507;53.132;6.394;2024-02-28T15:03:02;8.30;99.90
52209;DHT22;38507;53.132;6.394;2024-02-28T15:05:49;8.00;99.90
52209;DHT22;38507;53.132;6.394;2024-02-28T15:08:14;8.10;99.90
52209;DHT22;38507;53.132;6.394;2024-02-28T15:10:40;8.00;99.90
52209;DHT22;38507;53.132;6.394;2024-02-28T15:13:09;9.20;99.90
52209;DHT22;38507;53.132;6.394;2024-02-28T15:15:34;8.80;99.90
52209;DHT22;38507;53.132;6.394;2024-02-28T15:18:00;9.20;99.90
52209;DHT22;38507;53.132;6.394;2024-02-28T15:20:27;8.40;99.90
52209;DHT22;38507;53.132;6.394;2024-02-28T15:22:52;9.20;99.90
52209;DHT22;38507;53.132;6.394;2024-02-28T15:25:18;8.10;99.90
52209;DHT22;38507;53.132;6.394;2024-02-28T15:27:44;8.20;99.90
52209;DHT22;38507;53.132;6.394;2024-02-28T15:30:10;8.20;99.90
52209;DHT22;38507;53.132;6.394;2024-02-28T15:32:36;8.10;99.90
52209;DHT22;38507;53.132;6.394;2024-02-28T15:35:05;9.30;99.90
52209;DHT22;38507;53.132;6.394;2024-02-28T15:37:32;8.20;99.90
52209;DHT22;38507;53.132;6.394;2024-02-28T15:39:58;9.20;99.90
52209;DHT22;38507;53.132;6.394;2024-02-28T15:42:24;9.40;99.90
52209;DHT22;38507;53.132;6.394;2024-02-28T15:44:53;9.20;99.90
52209;DHT22;38507;53.132;6.394;2024-02-28T15:47:19;7.50;99.90
52209;DHT22;38507;53.132;6.394;2024-02-28T15:49:44;8.90;99.90
52209;DHT22;38507;53.132;6.394;2024-02-28T15:52:10;8.00;99.90
52209;DHT22;38507;53.132;6.394;2024-02-28T15:54:37;8.70;99.90
52209;DHT22;38507;53.132;6.394;2024-02-28T15:57:04;9.10;99.90
52209;DHT22;38507;53.132;6.394;2024-02-28T15:59:29;8.60;99.90
52209;DHT22;38507;53.132;6.394;2024-02-28T16:01:58;8.80;99.90
52209;DHT22;38507;53.132;6.394;2024-02-28T16:04:28;8.30;99.90
52209;DHT22;38507;53.132;6.394;2024-02-28T16:06:54;9.00;99.90
52209;DHT22;38507;53.132;6.394;2024-02-28T16:09:19;8.80;99.90
52209;DHT22;38507;53.132;6.394;2024-02-28T16:11:45;9.10;99.90
52209;DHT22;38507;53.132;6.394;2024-02-28T16:14:11;7.90;99.90
52209;DHT22;38507;53.132;6.394;2024-02-28T16:16:37;9.10;99.90
52209;DHT22;38507;53.132;6.394;2024-02-28T16:19:05;7.80;99.90
52209;DHT22;38507;53.132;6.394;2024-02-28T16:21:31;8.50;99.90
52209;DHT22;38507;53.132;6.394;2024-02-28T16:24:04;9.00;99.90
52209;DHT22;38507;53.132;6.394;2024-02-28T16:26:32;7.70;99.90
52209;DHT22;38507;53.132;6.394;2024-02-28T16:28:58;8.90;99.90
52209;DHT22;38507;53.132;6.394;2024-02-28T16:31:29;8.70;99.90
52209;DHT22;38507;53.132;6.394;2024-02-28T16:33:55;8.70;99.90
52209;DHT22;38507;53.132;6.394;2024-02-28T16:36:20;7.70;99.90
52209;DHT22;38507;53.132;6.394;2024-02-28T16:38:47;7.70;99.90
52209;DHT22;38507;53.132;6.394;2024-02-28T16:41:21;8.70;99.90
52209;DHT22;38507;53.132;6.394;2024-02-28T16:43:50;7.60;99.90
52209;DHT22;38507;53.132;6.394;2024-02-28T16:46:16;7.00;99.90
52209;DHT22;38507;53.132;6.394;2024-02-28T16:48:41;7.50;99.90
52209;DHT22;38507;53.132;6.394;2024-02-28T16:51:07;8.60;99.90
52209;DHT22;38507;53.132;6.394;2024-02-28T16:53:33;8.80;99.90
52209;DHT22;38507;53.132;6.394;2024-02-28T16:55:59;8.30;99.90
52209;DHT22;38507;53.132;6.394;2024-02-28T16:58:26;7.40;99.90
52209;DHT22;38507;53.132;6.394;2024-02-28T17:00:52;8.20;99.90
52209;DHT22;38507;53.132;6.394;2024-02-28T17:03:18;8.70;99.90
52209;DHT22;38507;53.132;6.394;2024-02-28T17:05:44;8.60;99.90
52209;DHT22;38507;53.132;6.394;2024-02-28T17:08:09;8.50;99.90
52209;DHT22;38507;53.132;6.394;2024-02-28T17:10:35;8.50;99.90
52209;DHT22;38507;53.132;6.394;2024-02-28T17:13:02;8.40;99.90
52209;DHT22;38507;53.132;6.394;2024-02-28T17:15:29;7.30;99.90
52209;DHT22;38507;53.132;6.394;2024-02-28T17:17:55;7.30;99.90
52209;DHT22;38507;53.132;6.394;2024-02-28T17:20:21;8.00;99.90
52209;DHT22;38507;53.132;6.394;2024-02-28T17:22:47;8.50;99.90
52209;DHT22;38507;53.132;6.394;2024-02-28T17:25:12;7.30;99.90
52209;DHT22;38507;53.132;6.394;2024-02-28T17:27:38;8.20;99.90
52209;DHT22;38507;53.132;6.394;2024-02-28T17:30:04;7.80;99.90
52209;DHT22;38507;53.132;6.394;2024-02-28T17:32:38;7.30;99.90
52209;DHT22;38507;53.132;6.394;2024-02-28T17:35:04;8.30;99.90
52209;DHT22;38507;53.132;6.394;2024-02-28T17:37:31;7.30;99.90
52209;DHT22;38507;53.132;6.394;2024-02-28T17:39:58;8.00;99.90
52209;DHT22;38507;53.132;6.394;2024-02-28T17:42:26;8.10;99.90
52209;DHT22;38507;53.132;6.394;2024-02-28T17:44:52;8.10;99.90
52209;DHT22;38507;53.132;6.394;2024-02-28T17:47:18;8.40;99.90
52209;DHT22;38507;53.132;6.394;2024-02-28T17:49:43;8.10;99.90
52209;DHT22;38507;53.132;6.394;2024-02-28T17:52:10;8.20;99.90
52209;DHT22;38507;53.132;6.394;2024-02-28T17:54:36;7.20;99.90
52209;DHT22;38507;53.132;6.394;2024-02-28T17:57:03;8.30;99.90
52209;DHT22;38507;53.132;6.394;2024-02-28T17:59:29;7.20;99.90
52209;DHT22;38507;53.132;6.394;2024-02-28T18:01:54;8.30;99.90
52209;DHT22;38507;53.132;6.394;2024-02-28T18:04:22;7.90;99.90
52209;DHT22;38507;53.132;6.394;2024-02-28T18:06:47;8.00;99.90
52209;DHT22;38507;53.132;6.394;2024-02-28T18:09:13;7.10;99.90
52209;DHT22;38507;53.132;6.394;2024-02-28T18:11:44;7.90;99.90
52209;DHT22;38507;53.132;6.394;2024-02-28T18:14:10;8.10;99.90
52209;DHT22;38507;53.132;6.394;2024-02-28T18:16:37;8.00;99.90
52209;DHT22;38507;53.132;6.394;2024-02-28T18:19:04;7.70;99.90
52209;DHT22;38507;53.132;6.394;2024-02-28T18:21:30;7.00;99.90
52209;DHT22;38507;53.132;6.394;2024-02-28T18:23:59;7.30;99.90
52209;DHT22;38507;53.132;6.394;2024-02-28T18:26:25;7.00;99.90
52209;DHT22;38507;53.132;6.394;2024-02-28T18:28:51;7.10;99.90
52209;DHT22;38507;53.132;6.394;2024-02-28T18:31:16;8.10;99.90
52209;DHT22;38507;53.132;6.394;2024-02-28T18:33:42;6.90;99.90
52209;DHT22;38507;53.132;6.394;2024-02-28T18:36:08;7.60;99.90
52209;DHT22;38507;53.132;6.394;2024-02-28T18:38:35;7.90;99.90
52209;DHT22;38507;53.132;6.394;2024-02-28T18:41:02;8.10;99.90
52209;DHT22;38507;53.132;6.394;2024-02-28T18:43:28;8.10;99.90
52209;DHT22;38507;53.132;6.394;2024-02-28T18:45:54;8.30;99.90
52209;DHT22;38507;53.132;6.394;2024-02-28T18:48:20;7.10;99.90
52209;DHT22;38507;53.132;6.394;2024-02-28T18:50:46;8.10;99.90
52209;DHT22;38507;53.132;6.394;2024-02-28T18:53:12;6.80;99.90
52209;DHT22;38507;53.132;6.394;2024-02-28T18:55:37;6.80;99.90
52209;DHT22;38507;53.132;6.394;2024-02-28T18:58:06;8.00;99.90
52209;DHT22;38507;53.132;6.394;2024-02-28T19:00:33;7.90;99.90
52209;DHT22;38507;53.132;6.394;2024-02-28T19:03:02;7.60;99.90
52209;DHT22;38507;53.132;6.394;2024-02-28T19:05:28;6.70;99.90
52209;DHT22;38507;53.132;6.394;2024-02-28T19:07:54;7.70;99.90
52209;DHT22;38507;53.132;6.394;2024-02-28T19:10:20;8.10;99.90